Terminal Aerodrome Forecast
Issued by NWS

Home | Current Version | Previous Version | Text Only | Print | Product List | Glossary On
Versions: 1 2 3 4 5 6 7 8 9 10 11 12 13 14 15 16 17 18 19 20 21 22 23 24 25 26 27 28 29 30 31 32 33 34
000
FTUS45 KBOU 260535
TAFBJC
TAF
KBJC 260535Z 2606/2706 24005KT P6SM FEW150 BKN250
     FM261200 VRB04KT P6SM FEW140 SCT250
     FM262100 22011G18KT P6SM FEW090 BKN200 PROB30 2621/2624 -TSRA
      SCT080CB=

USA.gov is the U.S. government's official web portal to all federal, state and local government web resources and services.